Time;durP1;ratioP1;P1;durP2;ratioP2;P2;SDS_P1;SDS_P2;PMS_P1;PMS_P2;Temp;Humidity;BMP_temperature;BMP_pressure;BME280_temperature;BME280_humidity;BME280_pressure;Samples;Min_cycle;Max_cycle;Signal;HPM_P1;HPM_P2
2022/04/22 00:02:26;;;;;;;15.65;11.40;;;;;;;9.13;100.00;100206.47;6283714;28;20052;-92
2022/04/22 00:05:28;;;;;;;18.13;11.88;;;;;;;9.13;100.00;100205.63;6257333;28;20047;-93
2022/04/22 00:08:31;;;;;;;17.40;11.98;;;;;;;9.09;100.00;100202.47;6262529;28;20037;-91
2022/04/22 00:11:32;;;;;;;20.25;12.43;;;;;;;9.05;100.00;100204.47;6258863;28;20517;-91
2022/04/22 00:14:40;;;;;;;20.83;13.15;;;;;;;8.94;100.00;100193.31;6265923;28;20041;-91
2022/04/22 00:17:42;;;;;;;18.33;12.65;;;;;;;8.81;100.00;100193.47;6266745;28;20051;-92
2022/04/22 00:20:45;;;;;;;19.13;12.80;;;;;;;8.68;100.00;100185.84;6246415;28;20053;-90
2022/04/22 00:23:49;;;;;;;19.00;12.73;;;;;;;8.61;100.00;100177.75;6259191;28;20470;-90
2022/04/22 00:26:50;;;;;;;20.67;14.05;;;;;;;8.52;100.00;100175.88;6255245;28;20051;-91
2022/04/22 00:29:52;;;;;;;20.33;13.10;;;;;;;8.45;100.00;100184.16;6237334;28;20061;-91
2022/04/22 00:32:54;;;;;;;19.45;13.45;;;;;;;8.40;100.00;100177.63;6261707;28;20041;-91
2022/04/22 00:35:56;;;;;;;23.38;14.07;;;;;;;8.33;100.00;100173.84;6264315;28;20045;-91
2022/04/22 00:38:58;;;;;;;19.45;13.75;;;;;;;8.29;100.00;100172.41;6252882;28;20049;-91
2022/04/22 00:42:09;;;;;;;18.33;13.35;;;;;;;8.23;100.00;100172.88;6254251;28;20045;-91
2022/04/22 00:45:11;;;;;;;19.65;13.65;;;;;;;8.18;100.00;100174.97;6252286;28;20776;-91
2022/04/22 00:48:14;;;;;;;24.67;15.55;;;;;;;8.17;100.00;100165.59;6257350;28;20573;-90
2022/04/22 00:51:18;;;;;;;22.33;14.13;;;;;;;8.17;100.00;100169.00;6256183;28;20045;-92
2022/04/22 00:54:21;;;;;;;21.85;14.00;;;;;;;8.12;100.00;100162.53;6267196;28;20042;-91
2022/04/22 00:57:23;;;;;;;18.02;13.20;;;;;;;8.04;100.00;100155.38;6267180;28;20600;-91
2022/04/22 01:00:25;;;;;;;21.00;13.35;;;;;;;7.96;100.00;100145.63;6257328;28;20390;-92
2022/04/22 01:03:30;;;;;;;21.55;14.70;;;;;;;7.92;100.00;100151.13;6261047;28;20095;-91
2022/04/22 01:09:55;;;;;;;;;;;;;;;7.88;100.00;100142.81;6267827;28;20039;-91
2022/04/22 01:12:57;;;;;;;18.15;12.10;;;;;;;7.81;100.00;100140.81;6233941;28;19924;-91
2022/04/22 01:15:59;;;;;;;21.17;12.68;;;;;;;7.78;100.00;100139.28;6262901;28;20410;-91
2022/04/22 01:19:01;;;;;;;17.67;12.43;;;;;;;7.80;100.00;100131.41;6255686;28;20048;-91
2022/04/22 01:22:03;;;;;;;20.13;12.73;;;;;;;7.74;100.00;100132.69;6256722;28;20060;-91
2022/04/22 01:25:05;;;;;;;20.15;12.85;;;;;;;7.72;100.00;100130.22;6257303;28;20075;-91
2022/04/22 01:28:09;;;;;;;17.65;12.43;;;;;;;7.68;100.00;100125.44;6259062;28;20069;-91
2022/04/22 01:31:10;;;;;;;21.17;11.93;;;;;;;7.62;100.00;100123.28;6249571;28;20561;-92
2022/04/22 01:34:13;;;;;;;19.88;12.65;;;;;;;7.62;100.00;100124.09;6254706;28;20076;-91
2022/04/22 01:37:15;;;;;;;18.50;12.55;;;;;;;7.71;100.00;100118.28;6257186;28;20115;-91
2022/04/22 01:40:17;;;;;;;17.33;12.10;;;;;;;7.63;100.00;100114.66;6259790;28;20044;-91
2022/04/22 01:43:19;;;;;;;17.00;11.80;;;;;;;7.64;100.00;100121.44;6251319;28;20040;-91
2022/04/22 01:46:21;;;;;;;21.08;12.63;;;;;;;7.67;100.00;100116.84;6268595;28;20501;-91
2022/04/22 01:49:23;;;;;;;22.60;11.95;;;;;;;7.65;100.00;100113.59;6259312;28;20670;-91
2022/04/22 01:52:26;;;;;;;17.52;11.90;;;;;;;7.57;100.00;100117.66;6250668;28;20355;-91
2022/04/22 01:55:28;;;;;;;15.52;10.98;;;;;;;7.57;100.00;100108.16;6256275;28;20040;-91
2022/04/22 01:58:30;;;;;;;16.98;11.68;;;;;;;7.50;100.00;100107.81;6258353;28;20071;-92
2022/04/22 02:01:32;;;;;;;19.00;11.57;;;;;;;7.45;100.00;100111.63;6258184;28;20090;-91
2022/04/22 02:04:34;;;;;;;22.45;11.98;;;;;;;7.46;100.00;100111.53;6250863;28;20040;-90
2022/04/22 02:07:38;;;;;;;18.80;13.38;;;;;;;7.39;100.00;100107.75;6258199;28;20507;-91
2022/04/22 02:10:41;;;;;;;17.35;11.90;;;;;;;7.37;100.00;100107.03;6251250;28;20045;-90
2022/04/22 02:13:42;;;;;;;19.00;12.13;;;;;;;7.32;100.00;100099.66;6282358;28;20064;-91
2022/04/22 02:16:47;;;;;;;20.95;12.45;;;;;;;7.32;100.00;100103.97;6257303;28;20045;-90
2022/04/22 02:19:48;;;;;;;20.85;12.40;;;;;;;7.33;100.00;100109.03;6265841;28;20056;-90
2022/04/22 02:22:50;;;;;;;18.45;12.43;;;;;;;7.33;100.00;100103.06;6258053;28;20037;-91
2022/04/22 02:25:52;;;;;;;16.83;11.90;;;;;;;7.39;100.00;100089.72;6278896;28;20052;-91
2022/04/22 02:29:00;;;;;;;19.85;12.10;;;;;;;7.45;100.00;100091.88;6267768;28;20044;-91
2022/04/22 02:32:02;;;;;;;15.88;11.70;;;;;;;7.48;100.00;100083.94;6245196;28;20922;-91
2022/04/22 02:35:04;;;;;;;18.83;12.77;;;;;;;7.51;100.00;100085.44;6248252;28;20650;-91
2022/04/22 02:38:06;;;;;;;17.05;11.82;;;;;;;7.58;100.00;100088.38;6251019;28;20383;-91
2022/04/22 02:47:49;;;;;;;16.33;10.93;;;;;;;7.74;100.00;100076.03;6259098;28;20047;-91
2022/04/22 02:50:50;;;;;;;17.92;10.63;;;;;;;7.79;100.00;100089.38;6274883;28;20041;-89
2022/04/22 02:53:53;;;;;;;16.83;10.35;;;;;;;7.78;100.00;100069.72;6250139;28;20040;-90
2022/04/22 02:56:56;;;;;;;15.63;10.10;;;;;;;7.79;100.00;100071.34;6256824;28;20048;-90
2022/04/22 02:59:58;;;;;;;14.50;10.00;;;;;;;7.77;100.00;100068.06;6259096;28;20057;-91
2022/04/22 03:03:01;;;;;;;14.50;9.70;;;;;;;7.73;100.00;100069.25;6260869;28;20406;-91
2022/04/22 03:06:03;;;;;;;14.10;9.65;;;;;;;7.70;100.00;100072.88;6265158;28;20460;-90
2022/04/22 03:09:05;;;;;;;14.02;10.20;;;;;;;7.73;100.00;100064.09;6274669;28;20036;-90
2022/04/22 03:12:08;;;;;;;14.35;9.82;;;;;;;7.77;100.00;100061.13;6262111;28;20049;-91
2022/04/22 03:15:10;;;;;;;12.00;8.80;;;;;;;7.84;100.00;100061.50;6276460;28;20048;-90
2022/04/22 03:18:12;;;;;;;13.98;9.32;;;;;;;7.89;100.00;100059.41;6275012;28;20496;-90
2022/04/22 03:21:14;;;;;;;14.20;9.52;;;;;;;7.94;100.00;100051.34;6263992;28;20041;-90
2022/04/22 03:24:15;;;;;;;11.95;8.90;;;;;;;7.97;100.00;100061.41;6262838;28;20068;-91
2022/04/22 03:27:17;;;;;;;12.98;8.95;;;;;;;8.04;100.00;100049.69;6265604;28;20051;-91
2022/04/22 03:30:20;;;;;;;13.65;9.07;;;;;;;8.07;100.00;100057.19;6262619;28;20450;-90
2022/04/22 03:33:24;;;;;;;14.73;8.90;;;;;;;8.11;100.00;100057.78;6270119;28;20541;-90
2022/04/22 03:36:26;;;;;;;12.25;8.57;;;;;;;8.11;100.00;100053.44;6262119;28;20394;-90
2022/04/22 03:39:28;;;;;;;16.23;8.88;;;;;;;8.13;100.00;100055.94;6264222;28;20044;-90
2022/04/22 03:42:30;;;;;;;14.73;8.85;;;;;;;8.18;100.00;100049.47;6266669;28;20037;-90
2022/04/22 03:45:32;;;;;;;11.50;8.23;;;;;;;8.17;100.00;100047.00;6263501;28;20084;-90
2022/04/22 03:48:34;;;;;;;13.55;8.93;;;;;;;8.20;100.00;100049.38;6265924;28;20400;-90
2022/04/22 03:51:36;;;;;;;13.68;7.93;;;;;;;8.21;100.00;100053.56;6262299;28;20121;-90
2022/04/22 03:54:38;;;;;;;9.70;6.63;;;;;;;8.16;100.00;100045.38;6265969;28;20048;-90
2022/04/22 04:01:00;;;;;;;9.13;5.88;;;;;;;8.18;100.00;100043.50;6261993;28;20068;-90
2022/04/22 04:04:04;;;;;;;8.10;6.10;;;;;;;8.17;100.00;100034.94;6266476;28;20186;-91
2022/04/22 04:07:05;;;;;;;7.47;5.25;;;;;;;8.22;100.00;100041.50;6263593;28;20048;-90
2022/04/22 04:16:49;;;;;;;5.63;3.97;;;;;;;8.20;100.00;100057.09;6244304;28;19988;-91
2022/04/22 04:23:14;;;;;;;9.30;5.15;;;;;;;8.19;100.00;100047.72;6247129;28;20098;-90
2022/04/22 04:26:17;;;;;;;6.75;4.40;;;;;;;8.20;100.00;100046.78;6263195;28;20033;-90
2022/04/22 04:29:19;;;;;;;5.47;4.28;;;;;;;8.16;100.00;100042.78;6260216;28;20608;-91
2022/04/22 04:32:21;;;;;;;6.22;3.47;;;;;;;8.16;100.00;100043.59;6265743;28;20589;-90
2022/04/22 04:35:23;;;;;;;5.28;3.55;;;;;;;8.23;100.00;100038.81;6243576;28;20256;-90
2022/04/22 04:38:27;;;;;;;6.10;3.50;;;;;;;8.20;100.00;100049.38;6262847;28;20048;-90
2022/04/22 04:41:29;;;;;;;9.45;3.75;;;;;;;8.22;100.00;100046.66;6262337;28;20049;-90
2022/04/22 04:44:31;;;;;;;5.63;3.25;;;;;;;8.24;100.00;100055.91;6265261;28;20508;-90
2022/04/22 04:47:43;;;;;;;5.95;3.58;;;;;;;8.23;100.00;100053.47;6262058;28;20106;-90
2022/04/22 04:50:51;;;;;;;9.95;4.55;;;;;;;8.21;100.00;100066.47;6263355;28;20040;-90
2022/04/22 04:53:52;;;;;;;7.47;4.30;;;;;;;8.21;100.00;100069.03;6263840;28;20045;-90
2022/04/22 04:56:54;;;;;;;7.72;4.28;;;;;;;8.20;100.00;100059.69;6262485;28;20049;-90
2022/04/22 04:59:56;;;;;;;7.80;5.03;;;;;;;8.18;100.00;100052.06;6254478;28;20053;-90
2022/04/22 05:02:57;;;;;;;10.40;6.15;;;;;;;8.25;100.00;100039.50;6252498;28;20461;-91
2022/04/22 05:06:03;;;;;;;13.85;7.38;;;;;;;8.31;100.00;100035.63;6259263;28;20248;-91
2022/04/22 05:09:05;;;;;;;13.23;7.82;;;;;;;8.28;100.00;100028.97;6268422;28;20752;-90
2022/04/22 05:12:07;;;;;;;13.65;8.27;;;;;;;8.30;100.00;100029.66;6268206;28;20041;-90
2022/04/22 05:15:10;;;;;;;13.88;7.10;;;;;;;8.39;100.00;100022.97;6276684;28;20051;-90
2022/04/22 05:18:13;;;;;;;9.52;6.68;;;;;;;8.56;100.00;100017.34;6262551;28;20045;-90
2022/04/22 05:21:16;;;;;;;11.98;6.72;;;;;;;8.54;100.00;100023.56;6260425;28;20044;-91
2022/04/22 05:24:18;;;;;;;10.45;7.05;;;;;;;8.58;100.00;100023.19;6261105;28;20490;-90
2022/04/22 05:27:20;;;;;;;12.30;7.60;;;;;;;8.65;100.00;100025.31;6260355;28;20045;-90
2022/04/22 05:33:43;;;;;;;13.80;7.80;;;;;;;8.79;100.00;100019.84;6259171;28;20041;-90
2022/04/22 05:36:45;;;;;;;14.68;9.25;;;;;;;8.91;100.00;100031.78;6257806;28;21165;-90
2022/04/22 05:39:47;;;;;;;13.73;7.75;;;;;;;8.99;100.00;100028.56;6274805;28;20494;-90
2022/04/22 05:42:51;;;;;;;11.95;6.18;;;;;;;9.05;100.00;100028.91;6260860;28;20542;-90
2022/04/22 05:45:53;;;;;;;14.52;6.97;;;;;;;9.00;100.00;100037.97;6264077;28;20037;-90
2022/04/22 05:48:57;;;;;;;10.57;6.93;;;;;;;9.13;100.00;100030.88;6264730;28;20047;-90
2022/04/22 05:51:59;;;;;;;11.10;7.05;;;;;;;9.23;100.00;100036.94;6265555;28;20041;-90
2022/04/22 05:55:02;;;;;;;12.63;6.68;;;;;;;9.31;100.00;100038.06;6270366;28;20040;-90
2022/04/22 05:58:04;;;;;;;13.05;8.73;;;;;;;9.35;100.00;100039.47;6275116;28;20178;-90
2022/04/22 06:01:06;;;;;;;18.73;10.38;;;;;;;9.35;100.00;100039.47;6263408;28;20041;-90
2022/04/22 06:04:08;;;;;;;18.17;10.73;;;;;;;9.42;100.00;100046.59;6260276;28;20025;-90
2022/04/22 06:07:09;;;;;;;17.83;11.43;;;;;;;9.54;100.00;100043.94;6267838;28;20490;-90
2022/04/22 06:13:33;;;;;;;21.80;12.15;;;;;;;9.68;100.00;100047.00;6281648;28;20095;-90
2022/04/22 06:16:36;;;;;;;22.90;11.23;;;;;;;9.82;100.00;100047.66;6285184;28;20178;-90
2022/04/22 06:19:38;;;;;;;19.50;11.52;;;;;;;9.91;100.00;100049.44;6262721;28;20478;-90
2022/04/22 06:22:40;;;;;;;19.73;10.38;;;;;;;9.89;100.00;100049.59;6266630;28;20226;-91
2022/04/22 06:25:45;;;;;;;20.38;9.88;;;;;;;9.84;100.00;100045.75;6274189;28;20052;-90
2022/04/22 06:28:48;;;;;;;15.80;8.30;;;;;;;9.87;100.00;100046.31;6271347;28;20078;-90
2022/04/22 06:31:50;;;;;;;22.45;9.63;;;;;;;9.97;100.00;100045.53;6258703;28;20049;-91
2022/04/22 06:34:52;;;;;;;16.50;8.85;;;;;;;10.10;100.00;100052.13;6255449;28;20041;-90
2022/04/22 06:37:55;;;;;;;15.40;8.43;;;;;;;10.24;100.00;100047.56;6259669;28;20041;-90
2022/04/22 06:47:40;;;;;;;22.17;9.15;;;;;;;10.50;100.00;100030.63;6247017;28;20060;-91
2022/04/22 06:50:44;;;;;;;13.73;7.10;;;;;;;10.54;100.00;100026.84;6262779;28;20037;-91
2022/04/22 06:53:50;;;;;;;11.27;6.43;;;;;;;10.65;100.00;100035.44;6256131;28;20037;-89
2022/04/22 06:56:52;;;;;;;14.50;6.05;;;;;;;10.81;100.00;100030.56;6260457;28;20063;-89
2022/04/22 06:59:54;;;;;;;12.77;6.60;;;;;;;10.92;100.00;100030.41;6240743;28;20052;-89
2022/04/22 07:02:56;;;;;;;13.20;5.95;;;;;;;11.07;100.00;100035.19;6261155;28;20049;-89
2022/04/22 07:05:59;;;;;;;7.30;4.38;;;;;;;11.10;99.66;100033.16;6262742;28;20041;-90
2022/04/22 07:09:01;;;;;;;10.63;4.00;;;;;;;10.91;96.47;100027.97;6258956;28;20439;-89
2022/04/22 07:12:04;;;;;;;9.70;4.32;;;;;;;10.76;100.00;100028.38;6264876;28;20036;-90
2022/04/22 07:15:06;;;;;;;7.70;4.10;;;;;;;10.85;100.00;100024.13;6254420;28;20065;-90
2022/04/22 07:18:09;;;;;;;7.63;3.72;;;;;;;11.15;100.00;100027.56;6258638;28;20167;-89
2022/04/22 07:21:11;;;;;;;6.43;3.97;;;;;;;11.40;99.61;100023.56;6254511;28;20041;-89
2022/04/22 07:24:13;;;;;;;7.53;3.63;;;;;;;11.59;98.06;100023.53;6256704;28;20048;-89
2022/04/22 07:27:18;;;;;;;6.00;3.88;;;;;;;11.58;94.83;100028.88;6236354;28;20220;-89
2022/04/22 07:30:22;;;;;;;7.57;4.25;;;;;;;11.41;93.80;100020.03;6260994;28;20087;-89
2022/04/22 07:33:24;;;;;;;8.20;4.40;;;;;;;11.08;94.09;100010.91;6264199;28;20076;-89
2022/04/22 07:36:28;;;;;;;6.75;4.13;;;;;;;11.03;96.79;100010.53;6265679;28;20082;-89
2022/04/22 07:39:29;;;;;;;6.30;4.05;;;;;;;11.22;96.65;100002.75;6259991;28;20064;-89
2022/04/22 07:42:34;;;;;;;7.13;3.88;;;;;;;11.64;95.60;100007.56;6264619;28;20049;-88
2022/04/22 07:48:58;;;;;;;8.93;4.47;;;;;;;12.08;91.97;100015.63;6269157;28;20134;-88
2022/04/22 07:51:59;;;;;;;14.88;7.28;;;;;;;11.94;93.00;100014.31;6270903;28;20519;-88
2022/04/22 07:55:02;;;;;;;22.42;8.63;;;;;;;11.60;93.38;100020.00;6262684;28;20514;-88
2022/04/22 07:58:05;;;;;;;19.38;8.68;;;;;;;11.23;96.64;100004.38;6272452;28;20052;-88
2022/04/22 08:01:08;;;;;;;22.75;8.95;;;;;;;11.03;98.42;100013.09;6278113;28;20044;-89
2022/04/22 08:04:11;;;;;;;18.65;8.45;;;;;;;10.93;98.56;100008.78;6272263;28;20047;-89
2022/04/22 08:07:13;;;;;;;16.90;8.13;;;;;;;10.82;100.00;100014.06;6275796;28;20445;-89
2022/04/22 08:10:24;;;;;;;7.70;5.15;;;;;;;10.66;100.00;100016.38;6271794;28;20479;-89
2022/04/22 08:13:27;;;;;;;8.20;5.07;;;;;;;10.60;98.57;100016.91;6270358;28;20044;-89
2022/04/22 08:16:29;;;;;;;10.85;5.50;;;;;;;10.66;100.00;100016.38;6278065;28;20616;-89
2022/04/22 08:19:31;;;;;;;9.07;5.05;;;;;;;11.01;99.88;100013.25;6273955;28;20390;-89
2022/04/22 08:22:34;;;;;;;12.88;6.40;;;;;;;11.37;96.87;100019.47;6274217;28;20558;-89
2022/04/22 08:25:39;;;;;;;13.85;6.78;;;;;;;11.53;97.36;100024.13;6273482;28;20133;-88
2022/04/22 08:28:42;;;;;;;13.73;6.47;;;;;;;11.64;95.60;100026.53;6272506;28;20123;-88
2022/04/22 08:31:47;;;;;;;10.95;5.60;;;;;;;12.03;95.02;100031.63;6266237;28;20037;-88
2022/04/22 08:34:51;;;;;;;10.20;6.57;;;;;;;12.65;91.45;100021.47;6274216;28;20041;-89
2022/04/22 08:37:58;;;;;;;12.30;5.80;;;;;;;12.91;90.39;100026.72;6275087;28;20033;-88
2022/04/22 08:41:02;;;;;;;11.32;6.03;;;;;;;12.82;89.14;100029.41;6268716;28;20068;-88
2022/04/22 08:44:05;;;;;;;10.32;5.90;;;;;;;12.84;90.59;100025.69;6265826;28;20041;-90
2022/04/22 08:50:35;;;;;;;;;;;;;;;12.92;89.02;100027.56;6260029;28;20044;-89
2022/04/22 08:53:40;;;;;;;10.35;5.95;;;;;;;12.66;88.32;100023.09;6259569;28;20400;-88
2022/04/22 08:56:43;;;;;;;12.48;6.03;;;;;;;12.31;90.86;100023.84;6260930;28;20145;-88
2022/04/22 08:59:45;;;;;;;7.75;5.30;;;;;;;12.18;89.97;100025.97;6265132;28;20048;-88
2022/04/22 09:02:48;;;;;;;10.70;6.25;;;;;;;11.92;95.10;100020.59;6257992;28;20045;-89
2022/04/22 09:05:50;;;;;;;9.93;5.97;;;;;;;11.81;94.86;100024.97;6255998;28;20045;-89
2022/04/22 09:08:56;;;;;;;11.32;5.60;;;;;;;11.69;95.82;100020.94;6272858;28;20045;-88
2022/04/22 09:12:12;;;;;;;8.77;5.30;;;;;;;11.66;96.91;100021.22;6264574;28;20041;-89
2022/04/22 09:15:15;;;;;;;9.60;5.68;;;;;;;11.76;94.80;100018.59;6269582;28;20041;-90
2022/04/22 09:18:19;;;;;;;10.88;5.90;;;;;;;11.78;95.34;100011.50;6249495;28;20511;-89
2022/04/22 09:21:23;;;;;;;9.93;5.82;;;;;;;11.71;94.88;100015.59;6264331;28;20067;-89
2022/04/22 09:24:25;;;;;;;11.88;5.93;;;;;;;11.65;96.08;100004.00;6246348;28;20048;-89
2022/04/22 09:27:44;;;;;;;11.82;7.50;;;;;;;11.68;95.87;100001.16;6243510;28;20123;-88
2022/04/22 09:31:03;;;;;;;9.57;6.47;;;;;;;11.66;94.30;99994.47;6244588;28;20064;-90
2022/04/22 09:34:05;;;;;;;11.68;6.38;;;;;;;11.56;95.85;99997.09;6262559;28;20641;-88
2022/04/22 09:44:00;;;;;;;11.10;6.20;;;;;;;11.87;94.17;99989.09;6258954;28;20052;-88
2022/04/22 09:47:12;;;;;;;8.65;5.72;;;;;;;11.98;93.61;99994.94;6259074;28;20037;-89
2022/04/22 09:50:38;;;;;;;7.82;5.78;;;;;;;12.07;94.96;99988.03;6256760;28;20041;-89
2022/04/22 09:53:43;;;;;;;7.57;5.53;;;;;;;12.19;92.53;99981.69;6255480;28;20037;-89
2022/04/22 09:56:55;;;;;;;10.02;6.20;;;;;;;12.23;91.28;99979.66;6266896;28;20047;-88
2022/04/22 09:59:57;;;;;;;8.57;6.03;;;;;;;12.38;91.18;99980.78;6260573;28;20500;-89
2022/04/22 10:03:00;;;;;;;9.48;6.57;;;;;;;12.38;91.93;99982.56;6259960;28;20045;-88
2022/04/22 10:06:03;;;;;;;12.88;7.05;;;;;;;12.43;91.86;99982.94;6252898;28;20491;-89
2022/04/22 10:09:08;;;;;;;13.90;6.32;;;;;;;12.50;90.78;99979.63;6256642;28;20268;-88
2022/04/22 10:12:12;;;;;;;14.77;6.80;;;;;;;12.48;90.50;99983.31;6257499;28;20045;-88
2022/04/22 10:15:19;;;;;;;9.65;7.10;;;;;;;12.56;92.03;99983.41;6256415;28;20068;-87
2022/04/22 10:18:22;;;;;;;11.57;7.43;;;;;;;12.95;90.29;99984.91;6249029;28;20067;-89
2022/04/22 10:21:25;;;;;;;12.07;7.05;;;;;;;13.50;88.60;99985.47;6253116;28;20045;-89
2022/04/22 10:24:31;;;;;;;12.40;7.95;;;;;;;14.19;85.22;99982.88;6240558;28;20075;-89
2022/04/22 10:27:34;;;;;;;12.48;7.60;;;;;;;14.48;84.13;99976.41;6261551;28;20626;-90
2022/04/22 10:30:45;;;;;;;12.02;8.23;;;;;;;14.50;83.35;99974.47;6260170;28;20067;-89
2022/04/22 10:33:48;;;;;;;12.60;8.63;;;;;;;14.48;81.41;99977.22;6257731;28;20044;-90
2022/04/22 10:36:57;;;;;;;11.67;8.07;;;;;;;14.38;83.91;99971.34;6255484;28;20037;-89
2022/04/22 10:40:01;;;;;;;10.48;7.72;;;;;;;14.41;82.21;99966.66;6259464;28;20299;-89
2022/04/22 10:43:03;;;;;;;13.90;9.20;;;;;;;14.69;82.53;99974.22;6259661;28;20047;-89
2022/04/22 10:49:46;;;;;;;14.63;9.25;;;;;;;15.93;72.88;99962.63;6259299;28;20206;-89
2022/04/22 10:53:23;;;;;;;14.25;9.38;;;;;;;16.25;71.07;99961.66;6254430;28;20108;-89
2022/04/22 10:56:30;;;;;;;15.88;10.38;;;;;;;16.10;71.70;99964.19;6256348;28;20045;-90
2022/04/22 10:59:32;;;;;;;14.52;10.00;;;;;;;16.32;72.34;99961.75;6253574;28;20040;-89
2022/04/22 11:02:46;;;;;;;13.57;10.23;;;;;;;16.48;69.95;99966.91;6262676;28;20930;-90
2022/04/22 11:05:51;;;;;;;16.30;11.02;;;;;;;16.35;69.32;99961.44;6257113;28;20049;-90
2022/04/22 11:09:02;;;;;;;16.83;11.43;;;;;;;16.43;69.14;99964.00;6256925;28;20117;-89
2022/04/22 11:12:04;;;;;;;15.48;12.02;;;;;;;16.64;69.62;99954.69;6260822;28;20052;-89
2022/04/22 11:15:10;;;;;;;16.00;11.98;;;;;;;17.03;67.01;99953.78;6260390;28;20389;-90
2022/04/22 11:18:15;;;;;;;13.60;11.13;;;;;;;17.31;66.97;99944.34;6259268;28;20198;-89
2022/04/22 11:21:17;;;;;;;16.58;12.13;;;;;;;17.37;68.71;99945.44;6241411;28;20084;-89
2022/04/22 11:24:31;;;;;;;17.75;13.00;;;;;;;17.60;67.85;99940.09;6260446;28;20067;-89
2022/04/22 11:27:33;;;;;;;13.95;11.63;;;;;;;17.82;65.05;99933.97;6251784;28;20546;-89
2022/04/22 11:30:42;;;;;;;17.13;13.18;;;;;;;17.78;62.66;99931.88;6274223;28;20036;-92
2022/04/22 11:33:54;;;;;;;15.25;12.13;;;;;;;17.63;65.10;99934.50;6273180;28;20406;-89
2022/04/22 11:36:56;;;;;;;17.35;13.35;;;;;;;17.70;64.75;99931.97;6264044;28;20536;-90
2022/04/22 11:39:58;;;;;;;16.33;12.90;;;;;;;17.79;62.44;99936.94;6263194;28;20048;-89
2022/04/22 11:43:20;;;;;;;14.88;12.75;;;;;;;17.92;66.35;99930.28;6263973;28;20044;-90
2022/04/22 11:46:22;;;;;;;15.85;13.35;;;;;;;17.94;64.77;99930.91;6269536;28;20043;-88
2022/04/22 11:49:29;;;;;;;17.38;12.75;;;;;;;18.18;63.88;99934.97;6269969;28;20037;-89
2022/04/22 11:52:31;;;;;;;17.15;13.15;;;;;;;18.36;61.77;99929.31;6273269;28;20044;-90
2022/04/22 11:55:38;;;;;;;19.58;14.20;;;;;;;18.52;59.31;99934.31;6262833;28;20056;-89
2022/04/22 11:58:40;;;;;;;16.58;13.40;;;;;;;18.53;59.23;99925.44;6273873;28;20295;-89
2022/04/22 12:08:25;;;;;;;14.55;11.43;;;;;;;18.72;57.69;99922.19;6272235;28;19979;-89
2022/04/22 12:11:27;;;;;;;14.82;11.20;;;;;;;18.80;57.29;99918.66;6278001;28;20047;-90
2022/04/22 12:14:30;;;;;;;13.15;11.15;;;;;;;18.82;58.22;99907.97;6269071;28;20045;-90
2022/04/22 12:17:32;;;;;;;14.27;10.68;;;;;;;19.08;57.21;99918.69;6286297;28;20037;-89
2022/04/22 12:20:36;;;;;;;16.10;11.20;;;;;;;19.02;55.46;99914.19;6266850;28;20064;-90
2022/04/22 12:23:41;;;;;;;14.23;10.55;;;;;;;19.11;57.19;99907.78;6273438;28;20718;-90
2022/04/22 12:26:51;;;;;;;11.73;9.82;;;;;;;19.09;54.50;99909.78;6254925;28;20045;-89
2022/04/22 12:30:09;;;;;;;12.00;9.50;;;;;;;19.03;56.25;99896.63;6262504;28;20069;-89
2022/04/22 12:33:23;;;;;;;11.57;9.00;;;;;;;19.04;56.16;99885.16;6257182;28;20431;-89
2022/04/22 12:36:25;;;;;;;10.60;8.73;;;;;;;19.10;55.19;99887.78;6243524;28;20068;-89
2022/04/22 12:39:40;;;;;;;13.30;9.00;;;;;;;19.03;58.07;99886.97;6260094;28;20045;-89
2022/04/22 12:42:43;;;;;;;11.90;9.30;;;;;;;18.88;57.95;99880.97;6263216;28;20041;-89
2022/04/22 12:52:47;;;;;;;9.85;7.70;;;;;;;18.40;59.65;99867.69;6272198;28;20052;-89
2022/04/22 12:56:02;;;;;;;9.52;7.82;;;;;;;18.72;57.44;99858.47;6265306;28;20094;-89
2022/04/22 12:59:07;;;;;;;9.70;7.28;;;;;;;19.09;57.38;99865.19;6260752;28;20455;-89
2022/04/22 13:02:18;;;;;;;11.32;7.97;;;;;;;19.23;55.49;99862.63;6260842;28;20052;-89
2022/04/22 13:05:22;;;;;;;9.88;7.53;;;;;;;19.17;55.29;99855.56;6273323;28;20055;-90
2022/04/22 13:08:24;;;;;;;7.68;6.70;;;;;;;19.27;54.13;99856.00;6250627;28;20056;-90
2022/04/22 13:11:25;;;;;;;9.80;7.45;;;;;;;19.18;56.04;99859.78;6268213;28;20090;-89
2022/04/22 13:14:27;;;;;;;11.18;7.75;;;;;;;19.02;56.32;99851.22;6269566;28;20593;-89
2022/04/22 13:17:29;;;;;;;11.40;8.18;;;;;;;18.90;56.06;99852.75;6265190;28;20041;-89
2022/04/22 13:20:31;;;;;;;10.35;7.43;;;;;;;18.58;57.76;99847.06;6262722;28;20538;-89
2022/04/22 13:23:33;;;;;;;10.52;7.75;;;;;;;18.44;58.83;99847.97;6261373;28;20045;-90
2022/04/22 13:26:37;;;;;;;8.35;7.45;;;;;;;18.43;59.26;99848.94;6264512;28;20041;-90
2022/04/22 13:29:40;;;;;;;8.93;8.02;;;;;;;18.40;60.40;99841.47;6267503;28;20048;-89
2022/04/22 13:32:42;;;;;;;10.95;7.30;;;;;;;18.68;57.62;99837.06;6257227;28;20395;-90
2022/04/22 13:35:44;;;;;;;10.50;7.07;;;;;;;18.66;56.86;99840.88;6249356;28;20038;-92
2022/04/22 13:38:48;;;;;;;9.35;6.60;;;;;;;18.77;55.35;99826.47;6270762;28;20040;-92
2022/04/22 13:41:51;;;;;;;8.32;6.95;;;;;;;19.00;55.40;99832.25;6261771;28;20150;-92
2022/04/22 13:54:55;;;;;;;8.40;6.13;;;;;;;18.61;53.65;99817.06;6252596;28;20056;-92
2022/04/22 13:57:58;;;;;;;8.38;5.80;;;;;;;18.06;56.30;99814.16;6260902;28;20064;-92
2022/04/22 14:01:02;;;;;;;11.48;6.13;;;;;;;17.56;57.07;99808.00;6262226;28;20421;-91
2022/04/22 14:04:04;;;;;;;6.30;5.13;;;;;;;17.21;60.10;99807.78;6259262;28;20691;-91
2022/04/22 14:07:06;;;;;;;7.25;5.88;;;;;;;17.16;62.10;99812.75;6265948;28;20040;-91
2022/04/22 14:10:08;;;;;;;7.78;5.18;;;;;;;17.20;59.11;99799.13;6259843;28;20492;-92
2022/04/22 14:13:13;;;;;;;4.90;4.40;;;;;;;17.05;60.04;99816.63;6285092;28;20550;-92
2022/04/22 14:16:15;;;;;;;5.93;4.63;;;;;;;16.81;58.62;99820.31;6262310;28;20574;-91
2022/04/22 14:19:18;;;;;;;5.82;4.10;;;;;;;16.56;59.59;99814.47;6253938;28;20569;-91
2022/04/22 14:22:20;;;;;;;5.22;4.00;;;;;;;16.28;60.77;99817.66;6260040;28;20064;-92
2022/04/22 14:25:22;;;;;;;6.32;4.38;;;;;;;16.12;60.65;99817.78;6275731;28;20040;-91
2022/04/22 14:28:24;;;;;;;4.35;3.78;;;;;;;16.14;60.95;99823.66;6256537;28;20064;-91
2022/04/22 14:31:28;;;;;;;6.15;4.13;;;;;;;16.12;62.28;99821.22;6230718;28;20052;-91
2022/04/22 14:34:31;;;;;;;5.43;4.20;;;;;;;16.22;60.59;99820.16;6258947;28;20498;-91
2022/04/22 14:37:33;;;;;;;4.55;4.13;;;;;;;16.08;63.23;99819.94;6251720;28;20041;-92
2022/04/22 14:40:35;;;;;;;4.75;3.35;;;;;;;15.88;62.68;99818.78;6258158;28;20041;-91
2022/04/22 14:43:37;;;;;;;4.97;3.30;;;;;;;15.65;61.85;99813.47;6258624;28;20052;-91
2022/04/22 14:46:39;;;;;;;5.75;2.85;;;;;;;15.52;60.69;99820.06;6262745;28;20049;-92
2022/04/22 14:49:41;;;;;;;4.97;3.00;;;;;;;15.38;61.21;99825.19;6257775;28;20045;-92
2022/04/22 14:52:43;;;;;;;4.93;2.80;;;;;;;15.36;60.31;99819.34;6256824;28;20494;-92
2022/04/22 14:55:45;;;;;;;6.70;3.28;;;;;;;15.36;60.10;99827.19;6259118;28;20134;-93
2022/04/22 14:58:49;;;;;;;5.95;3.80;;;;;;;15.41;60.90;99825.69;6269446;28;20049;-91
2022/04/22 15:01:53;;;;;;;4.85;2.83;;;;;;;15.55;61.14;99825.94;6261231;28;20518;-91
2022/04/22 15:05:00;;;;;;;4.72;3.15;;;;;;;15.62;60.01;99813.84;6257627;28;20233;-91
2022/04/22 15:08:02;;;;;;;4.30;3.50;;;;;;;15.77;59.23;99821.78;6262489;28;20032;-91
2022/04/22 15:11:04;;;;;;;8.25;3.50;;;;;;;15.77;60.28;99816.56;6261124;28;20127;-91
2022/04/22 15:14:06;;;;;;;3.63;2.88;;;;;;;15.74;60.85;99825.53;6278755;28;20040;-91
2022/04/22 15:17:08;;;;;;;6.00;3.25;;;;;;;15.74;60.56;99827.34;6266049;28;20416;-92
2022/04/22 15:26:58;;;;;;;4.20;3.20;;;;;;;15.85;63.20;99827.75;6250479;28;20037;-90
2022/04/22 15:30:00;;;;;;;4.45;3.53;;;;;;;15.99;60.44;99826.19;6259247;28;20068;-91
2022/04/22 15:33:02;;;;;;;9.27;3.95;;;;;;;15.95;61.98;99822.31;6256862;28;20126;-91